sensor_id;sensor_type;location;lat;lon;timestamp;temperature;humidity
14884;DHT22;7534;50.762;7.000;2023-02-14T04:34:35;2.50;99.90
14884;DHT22;7534;50.762;7.000;2023-02-14T04:37:02;2.60;99.90
14884;DHT22;7534;50.762;7.000;2023-02-14T04:39:27;2.60;99.90
14884;DHT22;7534;50.762;7.000;2023-02-14T04:41:53;2.60;99.90
14884;DHT22;7534;50.762;7.000;2023-02-14T04:44:20;2.70;99.90
14884;DHT22;7534;50.762;7.000;2023-02-14T04:46:46;2.80;99.90
14884;DHT22;7534;50.762;7.000;2023-02-14T04:49:11;2.60;99.90
14884;DHT22;7534;50.762;7.000;2023-02-14T04:51:37;2.70;99.90
14884;DHT22;7534;50.762;7.000;2023-02-14T04:54:03;2.90;99.90
14884;DHT22;7534;50.762;7.000;2023-02-14T04:56:28;3.00;99.90
14884;DHT22;7534;50.762;7.000;2023-02-14T04:58:54;3.00;99.90
14884;DHT22;7534;50.762;7.000;2023-02-14T05:01:20;2.90;99.90
14884;DHT22;7534;50.762;7.000;2023-02-14T05:03:45;2.80;99.90
14884;DHT22;7534;50.762;7.000;2023-02-14T05:06:11;3.00;99.90
14884;DHT22;7534;50.762;7.000;2023-02-14T05:08:37;3.00;99.90
14884;DHT22;7534;50.762;7.000;2023-02-14T05:11:02;3.00;99.90
14884;DHT22;7534;50.762;7.000;2023-02-14T05:13:28;3.00;99.90
14884;DHT22;7534;50.762;7.000;2023-02-14T05:15:54;2.90;99.90
14884;DHT22;7534;50.762;7.000;2023-02-14T05:18:20;2.90;99.90
14884;DHT22;7534;50.762;7.000;2023-02-14T05:20:49;2.90;99.90
14884;DHT22;7534;50.762;7.000;2023-02-14T05:23:16;2.90;99.90
14884;DHT22;7534;50.762;7.000;2023-02-14T05:25:42;2.70;99.90
14884;DHT22;7534;50.762;7.000;2023-02-14T05:28:08;2.80;99.90
14884;DHT22;7534;50.762;7.000;2023-02-14T05:30:36;2.80;99.90
14884;DHT22;7534;50.762;7.000;2023-02-14T05:33:02;2.70;99.90
14884;DHT22;7534;50.762;7.000;2023-02-14T05:35:28;2.70;99.90
14884;DHT22;7534;50.762;7.000;2023-02-14T05:37:54;2.80;99.90
14884;DHT22;7534;50.762;7.000;2023-02-14T05:40:20;2.70;99.90
14884;DHT22;7534;50.762;7.000;2023-02-14T05:42:46;2.60;99.90
14884;DHT22;7534;50.762;7.000;2023-02-14T05:45:11;2.70;99.90
14884;DHT22;7534;50.762;7.000;2023-02-14T05:47:37;2.70;99.90
14884;DHT22;7534;50.762;7.000;2023-02-14T05:50:04;2.60;99.90
14884;DHT22;7534;50.762;7.000;2023-02-14T05:52:31;2.70;99.90
14884;DHT22;7534;50.762;7.000;2023-02-14T05:54:56;2.80;99.90
14884;DHT22;7534;50.762;7.000;2023-02-14T05:57:22;2.80;99.90
14884;DHT22;7534;50.762;7.000;2023-02-14T05:59:48;2.80;99.90
14884;DHT22;7534;50.762;7.000;2023-02-14T06:02:14;2.80;99.90
14884;DHT22;7534;50.762;7.000;2023-02-14T06:04:40;2.80;99.90
14884;DHT22;7534;50.762;7.000;2023-02-14T06:07:06;2.80;99.90
14884;DHT22;7534;50.762;7.000;2023-02-14T06:09:33;2.80;99.90
14884;DHT22;7534;50.762;7.000;2023-02-14T06:11:59;2.90;99.90
14884;DHT22;7534;50.762;7.000;2023-02-14T06:14:24;2.90;99.90
14884;DHT22;7534;50.762;7.000;2023-02-14T06:16:50;2.90;99.90
14884;DHT22;7534;50.762;7.000;2023-02-14T06:19:16;3.00;99.90
14884;DHT22;7534;50.762;7.000;2023-02-14T06:21:42;3.00;99.90
14884;DHT22;7534;50.762;7.000;2023-02-14T06:24:08;2.90;99.90
14884;DHT22;7534;50.762;7.000;2023-02-14T06:26:33;2.80;99.90
14884;DHT22;7534;50.762;7.000;2023-02-14T06:29:01;2.70;99.90
14884;DHT22;7534;50.762;7.000;2023-02-14T06:31:28;2.80;99.90
14884;DHT22;7534;50.762;7.000;2023-02-14T06:33:54;3.00;99.90
14884;DHT22;7534;50.762;7.000;2023-02-14T06:36:21;3.00;99.90
14884;DHT22;7534;50.762;7.000;2023-02-14T06:38:47;3.10;99.90
14884;DHT22;7534;50.762;7.000;2023-02-14T06:41:14;3.20;99.90
14884;DHT22;7534;50.762;7.000;2023-02-14T06:43:42;3.20;99.90
14884;DHT22;7534;50.762;7.000;2023-02-14T06:46:09;3.20;99.90
14884;DHT22;7534;50.762;7.000;2023-02-14T06:48:35;3.30;99.90
14884;DHT22;7534;50.762;7.000;2023-02-14T06:51:02;3.30;99.90
14884;DHT22;7534;50.762;7.000;2023-02-14T06:53:28;3.30;99.90
14884;DHT22;7534;50.762;7.000;2023-02-14T06:55:53;3.30;99.90
14884;DHT22;7534;50.762;7.000;2023-02-14T06:58:19;3.30;99.90
14884;DHT22;7534;50.762;7.000;2023-02-14T07:00:46;3.30;99.90
14884;DHT22;7534;50.762;7.000;2023-02-14T07:03:12;3.30;99.90
14884;DHT22;7534;50.762;7.000;2023-02-14T07:05:38;3.40;99.90
14884;DHT22;7534;50.762;7.000;2023-02-14T07:08:04;3.40;99.90
14884;DHT22;7534;50.762;7.000;2023-02-14T07:10:33;3.40;99.90
14884;DHT22;7534;50.762;7.000;2023-02-14T07:13:00;3.50;99.90
14884;DHT22;7534;50.762;7.000;2023-02-14T07:15:25;3.60;99.90
14884;DHT22;7534;50.762;7.000;2023-02-14T07:17:51;3.50;99.90
14884;DHT22;7534;50.762;7.000;2023-02-14T07:20:20;3.60;99.90
14884;DHT22;7534;50.762;7.000;2023-02-14T07:22:46;3.70;99.90
14884;DHT22;7534;50.762;7.000;2023-02-14T07:25:12;3.70;99.90
14884;DHT22;7534;50.762;7.000;2023-02-14T07:27:42;3.80;99.90
14884;DHT22;7534;50.762;7.000;2023-02-14T07:30:09;4.00;99.90
14884;DHT22;7534;50.762;7.000;2023-02-14T07:32:37;4.50;99.90
14884;DHT22;7534;50.762;7.000;2023-02-14T07:35:04;5.10;99.90
14884;DHT22;7534;50.762;7.000;2023-02-14T07:37:36;5.60;99.90
14884;DHT22;7534;50.762;7.000;2023-02-14T07:40:02;6.10;99.90
14884;DHT22;7534;50.762;7.000;2023-02-14T07:42:28;6.50;99.90
14884;DHT22;7534;50.762;7.000;2023-02-14T07:44:54;6.80;99.90
14884;DHT22;7534;50.762;7.000;2023-02-14T07:47:20;7.20;99.90
14884;DHT22;7534;50.762;7.000;2023-02-14T07:49:46;7.60;99.90
14884;DHT22;7534;50.762;7.000;2023-02-14T07:52:11;8.00;99.90
14884;DHT22;7534;50.762;7.000;2023-02-14T07:54:37;8.30;99.90
14884;DHT22;7534;50.762;7.000;2023-02-14T07:57:04;8.90;99.90
14884;DHT22;7534;50.762;7.000;2023-02-14T07:59:30;9.10;99.90
14884;DHT22;7534;50.762;7.000;2023-02-14T08:01:56;9.40;99.90
14884;DHT22;7534;50.762;7.000;2023-02-14T08:04:22;9.80;99.10
14884;DHT22;7534;50.762;7.000;2023-02-14T08:06:53;10.20;97.90
14884;DHT22;7534;50.762;7.000;2023-02-14T08:09:20;10.60;96.20
14884;DHT22;7534;50.762;7.000;2023-02-14T08:11:53;10.90;95.70
14884;DHT22;7534;50.762;7.000;2023-02-14T08:14:39;11.40;94.20
14884;DHT22;7534;50.762;7.000;2023-02-14T08:17:05;11.20;94.70
14884;DHT22;7534;50.762;7.000;2023-02-14T08:19:32;11.10;94.60
14884;DHT22;7534;50.762;7.000;2023-02-14T08:21:58;11.10;94.40
14884;DHT22;7534;50.762;7.000;2023-02-14T08:24:24;11.20;94.40
14884;DHT22;7534;50.762;7.000;2023-02-14T08:26:50;11.00;94.40
14884;DHT22;7534;50.762;7.000;2023-02-14T08:29:17;11.20;94.70
14884;DHT22;7534;50.762;7.000;2023-02-14T08:31:43;11.10;95.50
14884;DHT22;7534;50.762;7.000;2023-02-14T08:34:12;11.50;94.70
14884;DHT22;7534;50.762;7.000;2023-02-14T08:36:40;12.00;93.40
14884;DHT22;7534;50.762;7.000;2023-02-14T08:39:06;12.30;92.90
14884;DHT22;7534;50.762;7.000;2023-02-14T08:41:33;12.50;93.20
14884;DHT22;7534;50.762;7.000;2023-02-14T08:43:59;12.70;93.50
14884;DHT22;7534;50.762;7.000;2023-02-14T08:46:26;12.60;92.60
14884;DHT22;7534;50.762;7.000;2023-02-14T08:48:52;12.70;91.90
14884;DHT22;7534;50.762;7.000;2023-02-14T08:51:20;12.30;91.70
14884;DHT22;7534;50.762;7.000;2023-02-14T08:53:49;12.30;92.10
14884;DHT22;7534;50.762;7.000;2023-02-14T08:56:16;12.10;93.00
14884;DHT22;7534;50.762;7.000;2023-02-14T08:58:43;11.80;93.20
14884;DHT22;7534;50.762;7.000;2023-02-14T09:01:10;12.40;93.10
14884;DHT22;7534;50.762;7.000;2023-02-14T09:03:38;12.80;92.20
14884;DHT22;7534;50.762;7.000;2023-02-14T09:06:06;12.60;92.30
14884;DHT22;7534;50.762;7.000;2023-02-14T09:08:35;13.00;91.80
14884;DHT22;7534;50.762;7.000;2023-02-14T09:11:10;13.30;90.50
14884;DHT22;7534;50.762;7.000;2023-02-14T09:13:36;13.10;90.30
14884;DHT22;7534;50.762;7.000;2023-02-14T09:16:08;13.20;90.40
14884;DHT22;7534;50.762;7.000;2023-02-14T09:18:36;13.20;90.30
14884;DHT22;7534;50.762;7.000;2023-02-14T09:21:07;13.00;89.90
14884;DHT22;7534;50.762;7.000;2023-02-14T09:23:34;12.70;90.10
14884;DHT22;7534;50.762;7.000;2023-02-14T09:26:02;13.20;90.50
14884;DHT22;7534;50.762;7.000;2023-02-14T09:28:29;13.80;88.30
14884;DHT22;7534;50.762;7.000;2023-02-14T09:30:56;13.50;87.80
14884;DHT22;7534;50.762;7.000;2023-02-14T09:33:22;13.20;89.40
14884;DHT22;7534;50.762;7.000;2023-02-14T09:35:57;13.30;88.80
14884;DHT22;7534;50.762;7.000;2023-02-14T09:38:41;13.70;87.70
14884;DHT22;7534;50.762;7.000;2023-02-14T09:41:08;13.20;89.00
14884;DHT22;7534;50.762;7.000;2023-02-14T09:44:39;13.00;89.20
14884;DHT22;7534;50.762;7.000;2023-02-14T09:50:33;13.50;87.30
14884;DHT22;7534;50.762;7.000;2023-02-14T09:53:34;13.50;88.00
14884;DHT22;7534;50.762;7.000;2023-02-14T09:56:07;13.20;87.90
14884;DHT22;7534;50.762;7.000;2023-02-14T10:01:42;12.90;89.80
14884;DHT22;7534;50.762;7.000;2023-02-14T10:07:22;12.50;90.60
14884;DHT22;7534;50.762;7.000;2023-02-14T10:13:18;12.40;91.30
14884;DHT22;7534;50.762;7.000;2023-02-14T10:16:11;12.20;91.50
14884;DHT22;7534;50.762;7.000;2023-02-14T10:18:53;12.40;91.40
14884;DHT22;7534;50.762;7.000;2023-02-14T10:21:38;12.40;91.50
14884;DHT22;7534;50.762;7.000;2023-02-14T10:24:22;11.90;92.10
14884;DHT22;7534;50.762;7.000;2023-02-14T10:27:03;11.80;92.50
14884;DHT22;7534;50.762;7.000;2023-02-14T10:29:36;11.20;92.90
14884;DHT22;7534;50.762;7.000;2023-02-14T10:32:12;10.80;93.80
14884;DHT22;7534;50.762;7.000;2023-02-14T10:34:49;10.70;94.20
14884;DHT22;7534;50.762;7.000;2023-02-14T15:52:05;11.40;92.30
14884;DHT22;7534;50.762;7.000;2023-02-14T15:54:37;11.40;92.70
14884;DHT22;7534;50.762;7.000;2023-02-14T15:57:23;11.30;93.00
14884;DHT22;7534;50.762;7.000;2023-02-14T15:59:51;11.40;92.70
14884;DHT22;7534;50.762;7.000;2023-02-14T16:02:36;11.20;92.70
14884;DHT22;7534;50.762;7.000;2023-02-14T16:05:20;11.10;92.80
14884;DHT22;7534;50.762;7.000;2023-02-14T16:11:35;10.90;93.30
14884;DHT22;7534;50.762;7.000;2023-02-14T16:14:32;10.80;93.80
14884;DHT22;7534;50.762;7.000;2023-02-14T16:17:02;10.70;94.10
14884;DHT22;7534;50.762;7.000;2023-02-14T16:19:43;10.60;94.20
14884;DHT22;7534;50.762;7.000;2023-02-14T16:22:22;10.60;94.20
14884;DHT22;7534;50.762;7.000;2023-02-14T16:24:49;10.30;94.40
14884;DHT22;7534;50.762;7.000;2023-02-14T16:27:15;10.20;94.80
14884;DHT22;7534;50.762;7.000;2023-02-14T16:29:41;10.20;94.90
14884;DHT22;7534;50.762;7.000;2023-02-14T16:32:15;10.10;95.10
14884;DHT22;7534;50.762;7.000;2023-02-14T16:34:46;10.00;95.30
14884;DHT22;7534;50.762;7.000;2023-02-14T16:37:28;9.90;96.30
14884;DHT22;7534;50.762;7.000;2023-02-14T16:39:56;9.80;96.50
14884;DHT22;7534;50.762;7.000;2023-02-14T16:42:25;9.90;96.30
14884;DHT22;7534;50.762;7.000;2023-02-14T16:44:51;9.70;96.60
14884;DHT22;7534;50.762;7.000;2023-02-14T16:47:19;9.70;96.80
14884;DHT22;7534;50.762;7.000;2023-02-14T16:49:45;9.70;96.80
14884;DHT22;7534;50.762;7.000;2023-02-14T16:52:20;9.60;96.90
14884;DHT22;7534;50.762;7.000;2023-02-14T16:54:49;9.40;97.30
14884;DHT22;7534;50.762;7.000;2023-02-14T16:57:22;9.20;97.80
14884;DHT22;7534;50.762;7.000;2023-02-14T16:59:55;9.30;97.60
14884;DHT22;7534;50.762;7.000;2023-02-14T17:02:21;9.20;97.80
14884;DHT22;7534;50.762;7.000;2023-02-14T17:04:47;9.00;98.00
14884;DHT22;7534;50.762;7.000;2023-02-14T17:07:14;9.00;98.30
14884;DHT22;7534;50.762;7.000;2023-02-14T17:09:45;8.70;98.60
14884;DHT22;7534;50.762;7.000;2023-02-14T17:12:20;8.60;99.20
14884;DHT22;7534;50.762;7.000;2023-02-14T17:14:50;8.80;99.00
14884;DHT22;7534;50.762;7.000;2023-02-14T17:17:18;8.70;99.00
14884;DHT22;7534;50.762;7.000;2023-02-14T17:19:45;8.60;99.40
14884;DHT22;7534;50.762;7.000;2023-02-14T17:22:11;8.60;99.30
14884;DHT22;7534;50.762;7.000;2023-02-14T17:24:39;8.60;99.40
14884;DHT22;7534;50.762;7.000;2023-02-14T17:27:05;8.50;99.60
14884;DHT22;7534;50.762;7.000;2023-02-14T17:29:34;8.30;99.90
14884;DHT22;7534;50.762;7.000;2023-02-14T17:32:00;8.30;99.90
14884;DHT22;7534;50.762;7.000;2023-02-14T17:34:32;8.40;99.90
14884;DHT22;7534;50.762;7.000;2023-02-14T17:36:58;8.30;99.90
14884;DHT22;7534;50.762;7.000;2023-02-14T17:39:25;8.20;99.90
14884;DHT22;7534;50.762;7.000;2023-02-14T17:41:50;8.30;99.90
14884;DHT22;7534;50.762;7.000;2023-02-14T17:44:17;8.30;99.90
14884;DHT22;7534;50.762;7.000;2023-02-14T17:46:43;8.20;99.70
14884;DHT22;7534;50.762;7.000;2023-02-14T17:49:08;8.00;99.70
14884;DHT22;7534;50.762;7.000;2023-02-14T17:51:34;7.90;99.90
14884;DHT22;7534;50.762;7.000;2023-02-14T17:54:00;7.70;99.90
14884;DHT22;7534;50.762;7.000;2023-02-14T17:56:26;7.60;99.90
14884;DHT22;7534;50.762;7.000;2023-02-14T17:58:52;7.50;99.90
14884;DHT22;7534;50.762;7.000;2023-02-14T18:01:22;7.30;99.90
14884;DHT22;7534;50.762;7.000;2023-02-14T18:03:50;7.40;99.90
14884;DHT22;7534;50.762;7.000;2023-02-14T18:06:16;7.40;99.90
14884;DHT22;7534;50.762;7.000;2023-02-14T18:08:46;7.40;99.90
14884;DHT22;7534;50.762;7.000;2023-02-14T18:11:15;7.30;99.90
14884;DHT22;7534;50.762;7.000;2023-02-14T18:13:43;7.30;99.90
14884;DHT22;7534;50.762;7.000;2023-02-14T18:16:11;7.40;99.90
14884;DHT22;7534;50.762;7.000;2023-02-14T18:18:38;7.20;99.90
14884;DHT22;7534;50.762;7.000;2023-02-14T18:21:09;7.30;99.90
14884;DHT22;7534;50.762;7.000;2023-02-14T18:23:36;7.20;99.90
14884;DHT22;7534;50.762;7.000;2023-02-14T18:26:05;7.10;99.90
14884;DHT22;7534;50.762;7.000;2023-02-14T18:28:33;7.20;99.90
14884;DHT22;7534;50.762;7.000;2023-02-14T18:31:04;7.20;99.90
14884;DHT22;7534;50.762;7.000;2023-02-14T18:33:32;7.10;99.90
14884;DHT22;7534;50.762;7.000;2023-02-14T18:36:03;6.80;99.90
14884;DHT22;7534;50.762;7.000;2023-02-14T18:38:29;6.80;99.90
14884;DHT22;7534;50.762;7.000;2023-02-14T18:40:55;6.80;99.90
14884;DHT22;7534;50.762;7.000;2023-02-14T18:43:26;6.80;99.90
14884;DHT22;7534;50.762;7.000;2023-02-14T18:45:52;6.70;99.90
14884;DHT22;7534;50.762;7.000;2023-02-14T18:48:17;6.70;99.90
14884;DHT22;7534;50.762;7.000;2023-02-14T18:50:43;6.70;99.90
14884;DHT22;7534;50.762;7.000;2023-02-14T18:53:09;6.50;99.90
14884;DHT22;7534;50.762;7.000;2023-02-14T18:55:36;6.30;99.90
14884;DHT22;7534;50.762;7.000;2023-02-14T18:58:03;6.10;99.90
14884;DHT22;7534;50.762;7.000;2023-02-14T19:00:29;6.30;99.90
14884;DHT22;7534;50.762;7.000;2023-02-14T19:02:58;6.30;99.90
14884;DHT22;7534;50.762;7.000;2023-02-14T19:05:26;6.20;99.90
14884;DHT22;7534;50.762;7.000;2023-02-14T19:07:54;6.10;99.90
14884;DHT22;7534;50.762;7.000;2023-02-14T19:10:23;6.20;99.90
14884;DHT22;7534;50.762;7.000;2023-02-14T19:12:49;6.20;99.90
14884;DHT22;7534;50.762;7.000;2023-02-14T19:15:14;6.00;99.90
14884;DHT22;7534;50.762;7.000;2023-02-14T19:17:41;6.10;99.90
14884;DHT22;7534;50.762;7.000;2023-02-14T19:20:07;6.00;99.90
14884;DHT22;7534;50.762;7.000;2023-02-14T19:22:40;5.80;99.90
14884;DHT22;7534;50.762;7.000;2023-02-14T19:25:07;5.70;99.90
14884;DHT22;7534;50.762;7.000;2023-02-14T19:27:33;5.70;99.90
14884;DHT22;7534;50.762;7.000;2023-02-14T19:30:00;5.70;99.90
14884;DHT22;7534;50.762;7.000;2023-02-14T19:32:26;5.60;99.90
14884;DHT22;7534;50.762;7.000;2023-02-14T19:34:52;5.70;99.90
14884;DHT22;7534;50.762;7.000;2023-02-14T19:37:18;5.70;99.90
14884;DHT22;7534;50.762;7.000;2023-02-14T19:39:44;5.70;99.90
14884;DHT22;7534;50.762;7.000;2023-02-14T19:42:10;5.70;99.90
14884;DHT22;7534;50.762;7.000;2023-02-14T19:44:35;5.60;99.90
14884;DHT22;7534;50.762;7.000;2023-02-14T19:47:01;5.60;99.90
14884;DHT22;7534;50.762;7.000;2023-02-14T19:49:29;5.50;99.90
14884;DHT22;7534;50.762;7.000;2023-02-14T19:51:56;5.60;99.90
14884;DHT22;7534;50.762;7.000;2023-02-14T19:54:23;5.50;99.90
14884;DHT22;7534;50.762;7.000;2023-02-14T19:56:51;5.40;99.90
14884;DHT22;7534;50.762;7.000;2023-02-14T19:59:18;5.40;99.90
14884;DHT22;7534;50.762;7.000;2023-02-14T20:01:49;5.40;99.90
14884;DHT22;7534;50.762;7.000;2023-02-14T20:04:20;5.40;99.90
14884;DHT22;7534;50.762;7.000;2023-02-14T20:06:48;5.30;99.90
14884;DHT22;7534;50.762;7.000;2023-02-14T20:09:15;5.30;99.90
14884;DHT22;7534;50.762;7.000;2023-02-14T20:11:44;5.20;99.90
14884;DHT22;7534;50.762;7.000;2023-02-14T20:14:25;5.20;99.90
14884;DHT22;7534;50.762;7.000;2023-02-14T20:16:55;5.10;99.90
14884;DHT22;7534;50.762;7.000;2023-02-14T20:19:23;5.10;99.90
14884;DHT22;7534;50.762;7.000;2023-02-14T20:21:54;5.10;99.90
14884;DHT22;7534;50.762;7.000;2023-02-14T20:24:23;5.00;99.90
14884;DHT22;7534;50.762;7.000;2023-02-14T20:26:54;5.00;99.90
14884;DHT22;7534;50.762;7.000;2023-02-14T20:29:21;5.00;99.90
14884;DHT22;7534;50.762;7.000;2023-02-14T20:31:50;5.00;99.90
14884;DHT22;7534;50.762;7.000;2023-02-14T20:34:17;5.00;99.90
14884;DHT22;7534;50.762;7.000;2023-02-14T20:36:46;5.00;99.90
14884;DHT22;7534;50.762;7.000;2023-02-14T20:39:22;4.90;99.90
14884;DHT22;7534;50.762;7.000;2023-02-14T20:41:51;4.80;99.90
14884;DHT22;7534;50.762;7.000;2023-02-14T20:44:19;4.80;99.90
14884;DHT22;7534;50.762;7.000;2023-02-14T20:46:47;4.80;99.90
14884;DHT22;7534;50.762;7.000;2023-02-14T20:49:14;4.80;99.90
14884;DHT22;7534;50.762;7.000;2023-02-14T20:51:40;4.80;99.90
14884;DHT22;7534;50.762;7.000;2023-02-14T20:54:06;4.80;99.90
14884;DHT22;7534;50.762;7.000;2023-02-14T20:56:32;4.80;99.90
14884;DHT22;7534;50.762;7.000;2023-02-14T20:59:00;4.70;99.90
14884;DHT22;7534;50.762;7.000;2023-02-14T21:01:27;4.70;99.90
14884;DHT22;7534;50.762;7.000;2023-02-14T21:03:53;4.60;99.90
14884;DHT22;7534;50.762;7.000;2023-02-14T21:06:24;4.60;99.90
14884;DHT22;7534;50.762;7.000;2023-02-14T21:08:52;4.60;99.90
14884;DHT22;7534;50.762;7.000;2023-02-14T21:11:20;4.50;99.90
14884;DHT22;7534;50.762;7.000;2023-02-14T21:13:47;4.50;99.90
14884;DHT22;7534;50.762;7.000;2023-02-14T21:16:18;4.40;99.90
14884;DHT22;7534;50.762;7.000;2023-02-14T21:18:46;4.40;99.90
14884;DHT22;7534;50.762;7.000;2023-02-14T21:21:25;4.40;99.90
14884;DHT22;7534;50.762;7.000;2023-02-14T21:24:22;4.30;99.90
14884;DHT22;7534;50.762;7.000;2023-02-14T21:26:48;4.40;99.90
14884;DHT22;7534;50.762;7.000;2023-02-14T21:29:14;4.40;99.90
14884;DHT22;7534;50.762;7.000;2023-02-14T21:31:39;4.30;99.90
14884;DHT22;7534;50.762;7.000;2023-02-14T21:34:06;4.30;99.90
14884;DHT22;7534;50.762;7.000;2023-02-14T21:36:32;4.30;99.90
14884;DHT22;7534;50.762;7.000;2023-02-14T21:39:03;4.30;99.90
14884;DHT22;7534;50.762;7.000;2023-02-14T21:41:31;4.20;99.90
14884;DHT22;7534;50.762;7.000;2023-02-14T21:43:58;4.20;99.90
14884;DHT22;7534;50.762;7.000;2023-02-14T21:46:29;4.10;99.90
14884;DHT22;7534;50.762;7.000;2023-02-14T21:48:59;4.10;99.90
14884;DHT22;7534;50.762;7.000;2023-02-14T21:51:45;4.20;99.90
14884;DHT22;7534;50.762;7.000;2023-02-14T21:54:12;4.00;99.90
14884;DHT22;7534;50.762;7.000;2023-02-14T21:56:39;4.10;99.90
14884;DHT22;7534;50.762;7.000;2023-02-14T21:59:08;4.00;99.90
14884;DHT22;7534;50.762;7.000;2023-02-14T22:01:35;4.00;99.90
14884;DHT22;7534;50.762;7.000;2023-02-14T22:04:08;4.00;99.90
14884;DHT22;7534;50.762;7.000;2023-02-14T22:06:36;3.80;99.90
14884;DHT22;7534;50.762;7.000;2023-02-14T22:09:05;3.90;99.90
14884;DHT22;7534;50.762;7.000;2023-02-14T22:11:31;3.70;99.90
14884;DHT22;7534;50.762;7.000;2023-02-14T22:13:59;3.70;99.90
14884;DHT22;7534;50.762;7.000;2023-02-14T22:16:25;3.60;99.90
14884;DHT22;7534;50.762;7.000;2023-02-14T22:18:51;3.70;99.90
14884;DHT22;7534;50.762;7.000;2023-02-14T22:21:22;3.80;99.90
14884;DHT22;7534;50.762;7.000;2023-02-14T22:23:50;3.70;99.90
14884;DHT22;7534;50.762;7.000;2023-02-14T22:26:27;3.70;99.90
14884;DHT22;7534;50.762;7.000;2023-02-14T22:28:56;3.70;99.90
14884;DHT22;7534;50.762;7.000;2023-02-14T22:31:27;3.70;99.90
14884;DHT22;7534;50.762;7.000;2023-02-14T22:33:56;3.70;99.90
14884;DHT22;7534;50.762;7.000;2023-02-14T22:36:22;3.60;99.90
14884;DHT22;7534;50.762;7.000;2023-02-14T22:38:48;3.50;99.90
14884;DHT22;7534;50.762;7.000;2023-02-14T22:41:18;3.50;99.90
14884;DHT22;7534;50.762;7.000;2023-02-14T22:43:45;3.40;99.90
14884;DHT22;7534;50.762;7.000;2023-02-14T22:46:19;3.40;99.90
14884;DHT22;7534;50.762;7.000;2023-02-14T22:48:48;3.30;99.90
14884;DHT22;7534;50.762;7.000;2023-02-14T22:51:19;3.30;99.90
14884;DHT22;7534;50.762;7.000;2023-02-14T22:53:51;3.10;99.90
14884;DHT22;7534;50.762;7.000;2023-02-14T22:58:47;3.10;99.90
14884;DHT22;7534;50.762;7.000;2023-02-14T23:01:14;3.00;99.90
14884;DHT22;7534;50.762;7.000;2023-02-14T23:03:42;3.00;99.90
14884;DHT22;7534;50.762;7.000;2023-02-14T23:06:10;2.90;99.90
14884;DHT22;7534;50.762;7.000;2023-02-14T23:08:40;3.10;99.90
14884;DHT22;7534;50.762;7.000;2023-02-14T23:11:16;3.10;99.90
14884;DHT22;7534;50.762;7.000;2023-02-14T23:13:44;3.10;99.90
14884;DHT22;7534;50.762;7.000;2023-02-14T23:16:29;3.10;99.90
14884;DHT22;7534;50.762;7.000;2023-02-14T23:19:40;3.00;99.90
14884;DHT22;7534;50.762;7.000;2023-02-14T23:22:27;3.10;99.90
14884;DHT22;7534;50.762;7.000;2023-02-14T23:25:08;3.00;99.90
14884;DHT22;7534;50.762;7.000;2023-02-14T23:27:41;2.90;99.90
14884;DHT22;7534;50.762;7.000;2023-02-14T23:30:11;3.00;99.90
14884;DHT22;7534;50.762;7.000;2023-02-14T23:32:41;2.90;99.90
14884;DHT22;7534;50.762;7.000;2023-02-14T23:35:07;2.90;99.90
14884;DHT22;7534;50.762;7.000;2023-02-14T23:37:34;2.90;99.90
14884;DHT22;7534;50.762;7.000;2023-02-14T23:39:59;2.70;99.90
14884;DHT22;7534;50.762;7.000;2023-02-14T23:42:25;2.70;99.90
14884;DHT22;7534;50.762;7.000;2023-02-14T23:44:52;2.70;99.90
14884;DHT22;7534;50.762;7.000;2023-02-14T23:47:18;2.70;99.90
14884;DHT22;7534;50.762;7.000;2023-02-14T23:49:43;2.70;99.90
14884;DHT22;7534;50.762;7.000;2023-02-14T23:52:11;2.70;99.90
14884;DHT22;7534;50.762;7.000;2023-02-14T23:54:38;2.70;99.90
14884;DHT22;7534;50.762;7.000;2023-02-14T23:57:05;2.60;99.90
14884;DHT22;7534;50.762;7.000;2023-02-14T23:59:32;2.70;99.90
